Terminal Aerodrome Forecast
Issued by NWS

Home | Current Version | Previous Version | Text Only | Print | Product List | Glossary On
Versions: 1 2 3 4 5 6 7 8 9 10 11 12 13 14 15
000
FTUS42 KMHX 011700
TAFOAJ
TAF
KOAJ 011738Z 0118/0218 21006KT P6SM SCT040 SCT250
     FM020900 VRB03KT 3SM BR SCT250
     FM021230 24007KT P6SM SCT050
      AMD LTD TO CLD VIS AND WIND=

USA.gov is the U.S. government's official web portal to all federal, state and local government web resources and services.